• Join FlightAware (Why Join?)
  • Login
  • US Flag 
05:32AM EDT


 

Airport Tracker/Info


-or-


 

Live Flight TrackerFlight Track Log ✈ N614CZ ✈ 04-Jul-2013 ✈ KMSP - KLGA

Flight Track Log - Related Links

Times and Time Zones

All times are in EDT time to prevent confusion due to time zone crossing. See the N614CZ flight status page for this flight to view local times or setup timezone preferences in your user account.

Time Position Orientation Groundspeed Altitude Reporting Facility
EDT Latitude Longitude Course Direction KTS MPH feet Rate Location/Type
04:16PM 44.8833 -93.1333 70° East 179 206 2,500  Level Minneapolis TRACON
04:17PM 44.8836 -93.0914 89° East 211 243 3,100 1,680 Climbing Minneapolis Center
04:18PM 45.0010 -92.7577 69° East  Level FlightAware Approximate
04:18PM 44.9286 -93.0122 51° Northeast 275 316 5,300  Level Minneapolis Center
04:19PM 45.0443 -92.6034 68° East  Level FlightAware Approximate
04:19PM 44.9925 -92.9419 38° Northeast 290 334 8,200  Level Minneapolis Center
04:20PM 45.0877 -92.4491 70° East  Level FlightAware Approximate
04:20PM 45.0475 -92.8842 37° Northeast 304 350 10,400  Level Minneapolis Center
04:21PM 45.1230 -92.2915 70° East  Level FlightAware Approximate
04:21PM 45.1356 -92.7803 40° Northeast 353 406 12,400  Level Minneapolis Center
04:22PM 45.2311 -92.6722 39° Northeast 368 423 15,100 2,160 Climbing Minneapolis Center
04:23PM 45.2686 -92.5339 69° East 384 442 16,900 1,800 Climbing Minneapolis Center
04:24PM 45.2892 -92.3861 79° East 383 441 18,900 1,800 Climbing Minneapolis Center
04:25PM 45.3106 -92.2314 79° East 396 456 20,600 1,500 Climbing Minneapolis Center
04:27PM 45.2997 -91.9122 93° East 416 479 23,700 1,440 Climbing Minneapolis Center
04:28PM 45.2708 -91.7478 104° East 428 493 25,100 1,200 Climbing Minneapolis Center
04:29PM 45.2411 -91.5825 104° East 432 497 26,400 1,140 Climbing Minneapolis Center
04:30PM 45.1983 -91.3483 104° East 437 503 27,700 1,020 Climbing Minneapolis Center
04:31PM 45.1689 -91.1861 104° East 445 512 28,500 840 Climbing Minneapolis Center
04:32PM 45.1364 -91.0142 105° East 451 519 29,500 1,020 Climbing Minneapolis Center
04:33PM 45.1056 -90.8447 104° East 449 517 30,700 960 Climbing Minneapolis Center
04:34PM 45.0731 -90.6750 105° East 448 516 31,500 780 Climbing Minneapolis Center
04:35PM 45.0347 -90.4719 105° East 447 514 32,300 660 Climbing Minneapolis Center
04:36PM 45.0025 -90.3033 105° East 447 514 32,900 300 Climbing Minneapolis Center
04:37PM 44.9692 -90.1308 105° East 455 524 33,000  Climbing Minneapolis Center
04:38PM 44.9361 -89.9611 105° East 452 520 33,000  Level Minneapolis Center
04:39PM 44.9031 -89.7911 105° East 452 520 33,000  Level Minneapolis Center
04:40PM 44.8689 -89.6186 106° East 456 525 33,000  Level Minneapolis Center
04:41PM 44.8336 -89.4450 106° East 459 528 33,000  Level Minneapolis Center
04:42PM 44.7914 -89.2403 106° East 463 533 33,000  Level Minneapolis Center
04:44PM 44.7564 -89.0642 106° East 466 536 33,000  Level Minneapolis Center
04:45PM 44.7200 -88.8894 106° East 465 535 33,000 -120 Level Minneapolis Center
04:46PM 44.6833 -88.7139 106° East 467 537 32,800 -600 Descending Minneapolis Center
04:47PM 44.6483 -88.5428 106° East 458 527 31,800 -900 Descending Minneapolis Center
04:48PM 44.6178 -88.3989 107° East 459 528 31,000 -1,140 Descending Minneapolis Center
04:49PM 44.5753 -88.1983 107° East 460 529 29,500 -1,740 Descending Minneapolis Center
04:50PM 44.5381 -88.0281 107° East 456 525 27,500 -1,140 Descending Minneapolis Center
04:51PM 44.5017 -87.8556 106° East 443 510 27,000 -240 Descending Minneapolis Center
04:52PM 44.4517 -87.6328 107° East 463 533 27,000  Level Minneapolis Center
04:53PM 44.4131 -87.4556 107° East 472 543 27,000  Level Minneapolis Center
04:54PM 44.3733 -87.2808 108° East 470 541 27,000  Level Minneapolis Center
04:55PM 44.3306 -87.0903 107° East 473 544 27,000  Level Minneapolis Center
04:56PM 44.2836 -86.8822 107° East 472 543 27,000  Level Minneapolis Center
04:57PM 44.2456 -86.7108 107° East 469 540 27,000  Level Minneapolis Center
04:58PM 44.2136 -86.5739 108° East 468 539 27,000  Level Minneapolis Center
04:59PM 44.1667 -86.3719 108° East 463 533 27,000  Level Minneapolis Center
05:00PM 44.1194 -86.1686 108° East 463 533 27,000  Level Minneapolis Center
05:01PM 44.0781 -85.9953 108° East 466 536 27,000  Level Minneapolis Center
05:02PM 44.0372 -85.8233 108° East 467 537 27,000  Level Minneapolis Center
05:03PM 43.9961 -85.6525 108° East 466 536 27,000  Level Minneapolis Center
05:04PM 43.9553 -85.4836 109° East 464 534 27,000  Level Minneapolis Center
05:05PM 43.9139 -85.3131 109° East 465 535 27,000  Level Minneapolis Center
05:06PM 43.8731 -85.1431 108° East 465 535 27,000  Level Minneapolis Center
05:08PM 43.8319 -84.9750 109° East 462 532 27,000  Level Minneapolis Center
05:09PM 43.7911 -84.8108 109° East 455 524 27,000  Level Minneapolis Center
05:10PM 43.7583 -84.6825 109° East 448 516 27,000 300 Level Minneapolis Center
05:11PM 43.7106 -84.4911 109° East 442 509 27,700 960 Climbing Minneapolis Center
05:12PM 43.6525 -84.2617 109° East 450 518 29,300 1,260 Climbing Minneapolis Center
05:13PM 43.6197 -84.1317 109° East 450 518 30,300 1,080 Climbing Minneapolis Center
05:13PM 43.5886 -84.0256 112° Southeast 449 517 31,100 1,080 Climbing Cleveland Center
05:14PM 43.5397 -83.8394 110° East 441 507 32,100 900 Climbing Cleveland Center
05:15PM 43.4983 -83.6769 109° East 441 507 33,000 420 Climbing Cleveland Center
05:16PM 43.4547 -83.5144 110° East 441 507 33,000  Level Cleveland Center
05:17PM 43.4425 -83.4511 105° East 455 524 33,000  Level Minneapolis Center
05:18PM 43.4006 -83.2853 109° East 459 528 33,000  Level Minneapolis Center
05:19PM 43.3833 -83.0667 96° East 480 552 33,000  Level Toronto Center
05:19PM 43.3856 -82.9883 88° East 463 533 33,000  Level Cleveland Center
05:20PM 43.3808 -82.8083 92° East 470 541 33,000  Level Cleveland Center
05:21PM 43.3758 -82.6225 92° East 475 547 33,000  Level Cleveland Center
05:22PM 43.3706 -82.4394 92° East 480 552 33,000  Level Cleveland Center
05:23PM 43.3631 -82.2536 93° East 480 552 33,000  Level Cleveland Center
05:25PM 43.3333 -81.9667 98° East 480 552 33,000  Level Toronto Center
05:26PM 43.3333 -81.7833 90° East 480 552 33,000  Level Toronto Center
05:27PM 43.3333 -81.6000 90° East 480 552 33,000  Level Toronto Center
05:28PM 43.3167 -81.4167 97° East 490 564 33,000  Level Toronto Center
05:29PM 43.3000 -81.2333 97° East 490 564 33,000  Level Toronto Center
05:30PM 43.3000 -81.0333 90° East 490 564 33,000  Level Toronto Center
05:31PM 43.2833 -80.8667 98° East 490 564 33,000  Level Toronto Center
05:32PM 43.3000 -80.6833 83° East 480 552 33,000  Level Toronto Center
05:33PM 43.2833 -80.5000 97° East 480 552 33,000  Level Toronto Center
05:34PM 43.2667 -80.3167 97° East 480 552 33,000  Level Toronto Center
05:35PM 43.2667 -80.1167 90° East 480 552 33,000  Level Toronto Center
05:36PM 43.2500 -79.9500 98° East 480 552 33,000  Level Toronto Center
05:37PM 43.2333 -79.7667 97° East 480 552 33,000  Level Toronto Center
05:38PM 43.2333 -79.5833 90° East 480 552 33,000  Level Toronto Center
05:39PM 43.2167 -79.3833 96° East 480 552 33,000  Level Toronto Center
05:40PM 43.2122 -79.1561 91° East 481 554 33,000  Level Cleveland Center
05:41PM 43.2014 -78.9742 95° East 481 554 33,000  Level Cleveland Center
05:42PM 43.1883 -78.7894 95° East 481 554 33,000  Level Cleveland Center
05:43PM 43.1769 -78.6075 95° East 481 554 33,000  Level Cleveland Center
05:44PM 43.1633 -78.4286 96° East 481 554 33,000  Level Cleveland Center
05:45PM 43.1514 -78.2439 95° East 481 554 33,000  Level Cleveland Center
05:46PM 43.1372 -78.0625 96° East 481 554 33,000  Level Cleveland Center
05:47PM 43.1244 -77.8639 95° East 481 554 33,000  Level Cleveland Center
05:48PM 43.1094 -77.6797 96° East 481 554 33,000  Level Cleveland Center
05:49PM 43.0800 -77.5019 103° East 481 554 33,000  Level Cleveland Center
05:52PM 42.9703 -77.0947 110° East 471 542 33,000  Level Boston Center
05:53PM 42.9269 -76.9267 109° East 471 542 33,000  Level Boston Center
05:54PM 42.8814 -76.7533 110° East 476 548 33,000  Level Boston Center
05:55PM 42.8411 -76.6031 110° East 476 548 33,000 -360 Level Boston Center
05:56PM 42.7719 -76.4400 120° Southeast 462 532 32,300 -720 Descending Boston Center
05:57PM 42.7103 -76.2919 120° Southeast 457 526 31,600 -660 Descending Boston Center
05:58PM 42.6564 -76.1586 119° Southeast 457 526 31,000 -660 Descending Boston Center
05:59PM 42.5944 -76.0111 120° Southeast 452 520 30,300 -720 Descending Boston Center
06:00PM 42.5472 -75.8503 112° Southeast 452 520 29,600 -720 Descending Boston Center
06:01PM 42.5189 -75.6825 103° East 447 514 28,900 -720 Descending Boston Center
06:02PM 42.4983 -75.5208 100° East 447 514 28,200 -720 Descending Boston Center
06:03PM 42.4797 -75.3511 98° East 442 509 27,500 -720 Descending Boston Center
06:04PM 42.4503 -75.1922 104° East 447 514 26,800 -720 Descending Boston Center
06:05PM 42.3956 -75.0492 117° Southeast 431 496 26,100 -720 Descending Boston Center
06:06PM 42.3422 -74.9064 117° Southeast 421 484 25,400 -720 Descending Boston Center
06:07PM 42.2931 -74.7669 115° Southeast 421 484 24,700 -1,020 Descending Boston Center
06:08PM 42.2417 -74.6275 116° Southeast 416 479 23,400 -1,980 Descending Boston Center
06:09PM 42.1742 -74.4544 118° Southeast 411 473 20,400 -2,280 Descending Boston Center
06:10PM 42.1264 -74.3239 116° Southeast 393 452 18,500 -1,320 Descending Boston Center
06:11PM 42.0781 -74.2164 121° Southeast 383 441 17,800 -360 Descending Boston Center
06:12PM 42.0192 -74.1056 126° Southeast 368 423 17,800  Level Boston Center
06:13PM 41.9386 -74.0589 157° South 347 399 17,800  Level Boston Center
06:14PM 41.8372 -74.0144 162° South 347 399 17,800 -600 Level Boston Center
06:15PM 41.7336 -73.9700 162° South 352 405 16,700 -1,620 Descending Boston Center
06:17PM 41.5833 -73.9000 161° South 336 387 13,700 -1,860 Descending New York TRACON
06:18PM 41.5000 -73.8667 163° South 325 374 11,900 -1,800 Descending New York TRACON
06:19PM 41.4167 -73.8333 163° South 313 360 10,200 -1,500 Descending New York TRACON
06:20PM 41.3333 -73.8000 163° South 291 335 9,000 -960 Descending New York TRACON
06:21PM 41.2667 -73.7333 143° Southeast 293 337 8,300 -1,200 Descending New York TRACON
06:22PM 41.2000 -73.6833 151° Southeast 289 333 6,600 -1,740 Descending New York TRACON
06:23PM 41.1333 -73.6667 169° South 273 314 4,900 -1,320 Descending New York TRACON
06:24PM 41.0500 -73.6500 171° South 264 304 4,000 -540 Descending New York TRACON
06:25PM 41.0000 -73.7000 217° Southwest 254 292 3,900 -540 Descending New York TRACON
06:26PM 40.9333 -73.7500 210° Southwest 227 261 3,000 -900 Descending New York TRACON
06:27PM 40.8833 -73.7833 207° Southwest 240 276 2,100 -900 Descending New York TRACON